• Join FlightAware (Why Join?)
  • Login
  • US Flag 
06:13AM EDT


 

Airport Tracker/Info


-or-


 

Live Flight TrackerFlight Track Log ✈ CES2394 ✈ 20-Sep-2013 ✈ ZLIC / INC - ZLXY / XIY

Flight Track Log - Related Links

Times and Time Zones

All times are in EDT time to prevent confusion due to time zone crossing. See the CES2394 flight status page for this flight to view local times or setup timezone preferences in your user account.

Time Position Orientation Groundspeed Altitude Reporting Facility
EDT Latitude Longitude Course Direction KTS MPH feet Rate Location/Type
07:39AM 36.8464 107.3231 153° Southeast  Level Estimated
07:40AM 36.7641 107.3737 154° Southeast  Level Estimated
07:41AM 36.6819 107.4242 154° Southeast  Level Estimated
07:42AM 36.5996 107.4745 154° Southeast  Level Estimated
07:43AM 36.5173 107.5248 154° Southeast  Level Estimated
07:44AM 36.4350 107.5750 154° Southeast  Level Estimated
07:45AM 36.3526 107.6250 154° Southeast  Level Estimated
07:46AM 36.2703 107.6750 154° Southeast  Level Estimated
07:47AM 36.1879 107.7248 154° Southeast  Level Estimated
07:48AM 36.1055 107.7745 154° Southeast  Level Estimated
07:49AM 36.0231 107.8242 154° Southeast  Level Estimated
07:50AM 35.9406 107.8737 154° Southeast  Level Estimated
07:51AM 35.8582 107.9231 154° Southeast  Level Estimated
07:52AM 35.7757 107.9724 154° Southeast  Level Estimated
07:53AM 35.6932 108.0217 154° Southeast  Level Estimated
07:54AM 35.6107 108.0708 154° Southeast  Level Estimated
07:55AM 35.5281 108.1198 154° Southeast  Level Estimated
07:56AM 35.4456 108.1687 154° Southeast  Level Estimated
07:57AM 35.3630 108.2175 154° Southeast  Level Estimated
07:58AM 35.2804 108.2663 154° Southeast  Level Estimated
07:59AM 35.1978 108.3149 154° Southeast  Level Estimated
08:00AM 35.1151 108.3634 154° Southeast  Level Estimated
08:01AM 35.0325 108.4118 154° Southeast  Level Estimated
08:02AM 34.9498 108.4601 154° Southeast  Level Estimated
08:03AM 34.8671 108.5083 154° Southeast  Level Estimated
08:04AM 34.7844 108.5565 154° Southeast  Level Estimated
08:05AM 34.7016 108.6045 154° Southeast  Level Estimated
08:06AM 34.6189 108.6524 155° Southeast  Level Estimated
08:07AM 34.5361 108.7003 155° Southeast  Level Estimated
08:08AM 34.4533 108.7480 155° Southeast  Level Estimated
08:09AM 34.4471 108.7516 155° Southeast  Level Estimated
08:10AM 34.4471 108.7516 121° Southeast  Level Estimated
08:11AM 34.4471 108.7516 121° Southeast  Level Estimated
08:12AM 34.4471 108.7516 121° Southeast  Level Estimated
08:13AM 34.4471 108.7516 121° Southeast  Level Estimated
08:14AM 34.4471 108.7516 121° Southeast  Level Estimated
08:15AM 34.4471 108.7516 121° Southeast  Level Estimated
08:16AM 34.4471 108.7516 121° Southeast  Level Estimated
08:17AM 34.4471 108.7516 121° Southeast  Level Estimated
08:18AM 34.4471 108.7516 121° Southeast  Level Estimated
08:19AM 34.4471 108.7516 121° Southeast  Level Estimated
08:20AM 34.4471 108.7516 121° Southeast  Level Estimated
08:21AM 34.4471 108.7516 121° Southeast  Level Estimated
08:22AM 34.4471 108.7516 121° Southeast  Level Estimated
08:23AM 34.4471 108.7516 121° Southeast  Level Estimated
08:24AM 34.4471 108.7516 121° Southeast  Level Estimated
08:25AM 34.4471 108.7516 121° Southeast  Level Estimated
08:26AM 34.4471 108.7516 121° Southeast  Level Estimated
08:27AM 34.4471 108.7516 121° Southeast  Level Estimated
08:28AM 34.4471 108.7516 121° Southeast  Level Estimated
08:29AM 34.4471 108.7516 121° Southeast  Level Estimated
08:30AM 34.4471 108.7516 121° Southeast  Level Estimated
08:31AM 34.4471 108.7516 121° Southeast  Level Estimated
08:32AM 34.4471 108.7516 121° Southeast  Level Estimated
08:33AM 34.4471 108.7516 121° Southeast  Level Estimated
08:34AM 34.4471 108.7516 121° Southeast  Level Estimated
08:35AM 34.4471 108.7516 121° Southeast  Level Estimated
08:36AM 34.4471 108.7516 121° Southeast  Level Estimated
08:37AM 34.4471 108.7516 121° Southeast  Level Estimated
08:38AM 34.4471 108.7516 121° Southeast  Level Estimated
08:39AM 34.4471 108.7516 121° Southeast  Level Estimated
08:40AM 34.4471 108.7516 121° Southeast  Level Estimated
08:41AM 34.4471 108.7516 121° Southeast  Level Estimated
08:42AM 34.4471 108.7516 121° Southeast  Level Estimated
08:43AM 34.4471 108.7516 121° Southeast  Level Estimated
08:44AM 34.4471 108.7516 121° Southeast  Level Estimated
08:45AM 34.4471 108.7516 121° Southeast  Level Estimated
08:46AM 34.4471 108.7516 121° Southeast  Level Estimated
08:47AM 34.4471 108.7516 121° Southeast  Level Estimated
08:48AM 34.4471 108.7516 121° Southeast  Level Estimated
08:49AM 34.4471 108.7516 121° Southeast  Level Estimated
08:50AM 34.4471 108.7516 121° Southeast  Level Estimated
08:51AM 34.4471 108.7516 121° Southeast  Level Estimated
08:52AM 34.4471 108.7516 121° Southeast  Level Estimated
08:53AM 34.4471 108.7516 121° Southeast  Level Estimated
08:54AM 34.4471 108.7516 121° Southeast  Level Estimated
08:55AM 34.4471 108.7516 121° Southeast  Level Estimated
08:56AM 34.4471 108.7516 121° Southeast  Level Estimated
08:57AM 34.4471 108.7516 121° Southeast  Level Estimated
08:58AM 34.4471 108.7516 121° Southeast  Level Estimated
08:59AM 34.4471 108.7516 121° Southeast  Level Estimated
09:00AM 34.4471 108.7516 121° Southeast  Level Estimated
09:01AM 34.4471 108.7516 121° Southeast  Level Estimated
09:02AM 34.4471 108.7516 121° Southeast  Level Estimated
09:03AM 34.4471 108.7516 121° Southeast  Level Estimated
09:04AM 34.4471 108.7516 121° Southeast  Level Estimated
09:05AM 34.4471 108.7516 121° Southeast  Level Estimated